Search for airport 
image banner adimage banner adimage banner ad
image banner ad

3L2 - Sky Ranch

Located in Sandy Valley, United States

ICAO - 3L2, IATA -

Data provided by Airmate  

General information

Coordinates: N35°47'35" W115°37'35"
Elevation is 2599 feet MSL.
Magnetic variation is 14° East
View others Airports in Nevada

Operational data

Special qualification required
Current time UTC:
Current local time:
Weather at : KHND - Henderson Executive ( 49 km )
METAR: KHND 092256Z 22007KT 200V270 10SM CLR 31/M09 A2978 RMK AO2 SLP074 T03061094
TAF: KHND 091725Z 0918/1018 05009KT P6SM FEW160 FM092100 23014G23KT P6SM FEW250 FM100500 21010KT P6SM FEW200 FM101500 04007KT P6SM SKC
View NOTAMs / SUP AIP / TFR affecting this airport [VIEW]
Communications frequencies: [VIEW]

Runways:

RWY identifierQFULength (ft)Width (ft)SurfaceLDA (ft)
03334045ASPH
21334045ASPH
12134°3300105EARTH
30314°3300105EARTH

Airport contact information

Address: Sandy Valley United States

Satellite view of 3L2